Terminal Aerodrome Forecast
Issued by NWS Duluth, MN

Home | Current Version | Previous Version | Text Only | Print | Product List | Glossary On
Versions: 1 2 3 4 5 6 7 8 9 10 11 12 13 14 15 16 17 18 19
055
FTUS43 KDLH 241740
TAFINL
TAF
KINL 241740Z 2418/2518 29008KT P6SM VCSH OVC080
     FM241900 29010G18KT P6SM SCT012 BKN060
     FM250100 30011G19KT P6SM BKN035
     FM251600 31010KT P6SM SCT050=

USA.gov is the U.S. government's official web portal to all federal, state and local government web resources and services.